sensor_id;sensor_type;location;lat;lon;timestamp;P1;durP1;ratioP1;P2;durP2;ratioP2
6626;SDS011;3349;49.830;8.748;2023-06-14T00:01:51;7.57;;;6.10;;
6626;SDS011;3349;49.830;8.748;2023-06-14T00:04:19;6.28;;;5.50;;
6626;SDS011;3349;49.830;8.748;2023-06-14T00:06:46;6.55;;;5.90;;
6626;SDS011;3349;49.830;8.748;2023-06-14T00:09:13;6.53;;;5.90;;
6626;SDS011;3349;49.830;8.748;2023-06-14T00:11:42;7.72;;;5.57;;
6626;SDS011;3349;49.830;8.748;2023-06-14T00:14:09;7.63;;;5.28;;
6626;SDS011;3349;49.830;8.748;2023-06-14T00:16:36;7.35;;;5.88;;
6626;SDS011;3349;49.830;8.748;2023-06-14T00:19:03;6.68;;;5.72;;
6626;SDS011;3349;49.830;8.748;2023-06-14T00:21:34;7.85;;;5.50;;
6626;SDS011;3349;49.830;8.748;2023-06-14T00:24:03;7.15;;;5.40;;
6626;SDS011;3349;49.830;8.748;2023-06-14T00:26:30;6.63;;;5.70;;
6626;SDS011;3349;49.830;8.748;2023-06-14T00:28:57;5.97;;;5.40;;
6626;SDS011;3349;49.830;8.748;2023-06-14T00:31:24;8.07;;;6.05;;
6626;SDS011;3349;49.830;8.748;2023-06-14T00:33:50;11.38;;;5.65;;
6626;SDS011;3349;49.830;8.748;2023-06-14T00:36:17;8.05;;;5.85;;
6626;SDS011;3349;49.830;8.748;2023-06-14T00:38:46;6.50;;;5.78;;
6626;SDS011;3349;49.830;8.748;2023-06-14T00:41:12;6.90;;;5.03;;
6626;SDS011;3349;49.830;8.748;2023-06-14T00:43:39;8.00;;;6.05;;
6626;SDS011;3349;49.830;8.748;2023-06-14T00:46:06;8.95;;;5.90;;
6626;SDS011;3349;49.830;8.748;2023-06-14T00:48:32;6.60;;;5.90;;
6626;SDS011;3349;49.830;8.748;2023-06-14T00:51:00;8.27;;;5.78;;
6626;SDS011;3349;49.830;8.748;2023-06-14T00:53:28;6.85;;;6.10;;
6626;SDS011;3349;49.830;8.748;2023-06-14T00:55:58;7.20;;;6.03;;
6626;SDS011;3349;49.830;8.748;2023-06-14T00:58:25;7.95;;;6.35;;
6626;SDS011;3349;49.830;8.748;2023-06-14T01:00:53;8.02;;;5.97;;
6626;SDS011;3349;49.830;8.748;2023-06-14T01:03:21;7.28;;;6.53;;
6626;SDS011;3349;49.830;8.748;2023-06-14T01:05:48;10.43;;;6.47;;
6626;SDS011;3349;49.830;8.748;2023-06-14T01:08:19;9.55;;;6.22;;
6626;SDS011;3349;49.830;8.748;2023-06-14T01:10:52;6.90;;;6.20;;
6626;SDS011;3349;49.830;8.748;2023-06-14T01:13:27;8.05;;;6.32;;
6626;SDS011;3349;49.830;8.748;2023-06-14T01:15:58;9.35;;;6.80;;
6626;SDS011;3349;49.830;8.748;2023-06-14T01:18:25;8.35;;;6.72;;
6626;SDS011;3349;49.830;8.748;2023-06-14T01:20:55;8.52;;;6.32;;
6626;SDS011;3349;49.830;8.748;2023-06-14T01:23:24;7.60;;;6.47;;
6626;SDS011;3349;49.830;8.748;2023-06-14T01:25:57;9.65;;;5.75;;
6626;SDS011;3349;49.830;8.748;2023-06-14T01:28:28;6.38;;;5.75;;
6626;SDS011;3349;49.830;8.748;2023-06-14T01:30:57;7.10;;;6.45;;
6626;SDS011;3349;49.830;8.748;2023-06-14T01:33:29;8.13;;;6.22;;
6626;SDS011;3349;49.830;8.748;2023-06-14T01:35:58;8.32;;;6.75;;
6626;SDS011;3349;49.830;8.748;2023-06-14T01:38:27;8.68;;;6.63;;
6626;SDS011;3349;49.830;8.748;2023-06-14T01:40:55;9.75;;;7.07;;
6626;SDS011;3349;49.830;8.748;2023-06-14T01:43:24;10.45;;;7.75;;
6626;SDS011;3349;49.830;8.748;2023-06-14T01:45:52;12.85;;;7.53;;
6626;SDS011;3349;49.830;8.748;2023-06-14T01:48:20;7.80;;;6.72;;
6626;SDS011;3349;49.830;8.748;2023-06-14T01:50:47;7.80;;;6.95;;
6626;SDS011;3349;49.830;8.748;2023-06-14T01:53:14;9.05;;;7.07;;
6626;SDS011;3349;49.830;8.748;2023-06-14T01:55:43;8.52;;;6.95;;
6626;SDS011;3349;49.830;8.748;2023-06-14T01:58:13;7.38;;;6.68;;
6626;SDS011;3349;49.830;8.748;2023-06-14T02:00:41;9.35;;;7.38;;
6626;SDS011;3349;49.830;8.748;2023-06-14T02:03:08;9.90;;;7.63;;
6626;SDS011;3349;49.830;8.748;2023-06-14T02:05:36;9.65;;;8.10;;
6626;SDS011;3349;49.830;8.748;2023-06-14T02:08:04;11.07;;;7.45;;
6626;SDS011;3349;49.830;8.748;2023-06-14T02:10:30;8.70;;;7.65;;
6626;SDS011;3349;49.830;8.748;2023-06-14T02:12:58;8.77;;;7.18;;
6626;SDS011;3349;49.830;8.748;2023-06-14T02:15:25;7.88;;;7.07;;
6626;SDS011;3349;49.830;8.748;2023-06-14T02:17:58;7.95;;;7.00;;
6626;SDS011;3349;49.830;8.748;2023-06-14T02:20:26;9.32;;;6.38;;
6626;SDS011;3349;49.830;8.748;2023-06-14T02:22:53;7.28;;;6.57;;
6626;SDS011;3349;49.830;8.748;2023-06-14T02:25:20;8.18;;;6.40;;
6626;SDS011;3349;49.830;8.748;2023-06-14T02:27:47;7.32;;;6.63;;
6626;SDS011;3349;49.830;8.748;2023-06-14T02:30:15;7.03;;;6.43;;
6626;SDS011;3349;49.830;8.748;2023-06-14T02:32:42;7.35;;;6.65;;
6626;SDS011;3349;49.830;8.748;2023-06-14T02:35:09;8.18;;;7.28;;
6626;SDS011;3349;49.830;8.748;2023-06-14T02:37:35;8.02;;;6.90;;
6626;SDS011;3349;49.830;8.748;2023-06-14T02:40:02;8.93;;;7.95;;
6626;SDS011;3349;49.830;8.748;2023-06-14T02:42:31;8.18;;;7.32;;
6626;SDS011;3349;49.830;8.748;2023-06-14T02:44:57;9.10;;;7.63;;
6626;SDS011;3349;49.830;8.748;2023-06-14T02:47:25;9.18;;;7.57;;
6626;SDS011;3349;49.830;8.748;2023-06-14T02:49:52;9.38;;;8.00;;
6626;SDS011;3349;49.830;8.748;2023-06-14T02:52:19;9.50;;;7.85;;
6626;SDS011;3349;49.830;8.748;2023-06-14T02:54:46;8.10;;;7.18;;
6626;SDS011;3349;49.830;8.748;2023-06-14T02:57:13;7.68;;;6.93;;
6626;SDS011;3349;49.830;8.748;2023-06-14T02:59:41;8.93;;;7.80;;
6626;SDS011;3349;49.830;8.748;2023-06-14T03:02:07;8.07;;;7.07;;
6626;SDS011;3349;49.830;8.748;2023-06-14T03:04:35;7.85;;;7.00;;
6626;SDS011;3349;49.830;8.748;2023-06-14T03:07:03;7.40;;;6.63;;
6626;SDS011;3349;49.830;8.748;2023-06-14T03:09:34;9.05;;;6.57;;
6626;SDS011;3349;49.830;8.748;2023-06-14T03:12:02;9.00;;;6.80;;
6626;SDS011;3349;49.830;8.748;2023-06-14T03:14:29;8.18;;;6.80;;
6626;SDS011;3349;49.830;8.748;2023-06-14T03:16:56;7.80;;;6.55;;
6626;SDS011;3349;49.830;8.748;2023-06-14T03:19:24;7.25;;;6.55;;
6626;SDS011;3349;49.830;8.748;2023-06-14T03:21:52;7.97;;;6.93;;
6626;SDS011;3349;49.830;8.748;2023-06-14T03:24:22;9.82;;;8.00;;
6626;SDS011;3349;49.830;8.748;2023-06-14T03:26:48;7.63;;;6.75;;
6626;SDS011;3349;49.830;8.748;2023-06-14T03:29:15;8.07;;;7.07;;
6626;SDS011;3349;49.830;8.748;2023-06-14T03:31:55;8.25;;;7.18;;
6626;SDS011;3349;49.830;8.748;2023-06-14T03:34:23;8.20;;;7.20;;
6626;SDS011;3349;49.830;8.748;2023-06-14T03:36:49;10.27;;;7.22;;
6626;SDS011;3349;49.830;8.748;2023-06-14T03:39:17;8.95;;;7.40;;
6626;SDS011;3349;49.830;8.748;2023-06-14T03:41:44;8.68;;;6.55;;
6626;SDS011;3349;49.830;8.748;2023-06-14T03:44:11;9.65;;;7.55;;
6626;SDS011;3349;49.830;8.748;2023-06-14T03:46:40;10.85;;;6.53;;
6626;SDS011;3349;49.830;8.748;2023-06-14T03:49:07;7.95;;;7.05;;
6626;SDS011;3349;49.830;8.748;2023-06-14T03:51:33;10.98;;;7.38;;
6626;SDS011;3349;49.830;8.748;2023-06-14T03:54:00;9.20;;;7.25;;
6626;SDS011;3349;49.830;8.748;2023-06-14T03:56:28;7.93;;;7.00;;
6626;SDS011;3349;49.830;8.748;2023-06-14T03:58:55;9.20;;;7.50;;
6626;SDS011;3349;49.830;8.748;2023-06-14T04:01:21;8.57;;;6.47;;
6626;SDS011;3349;49.830;8.748;2023-06-14T04:03:54;8.38;;;6.78;;
6626;SDS011;3349;49.830;8.748;2023-06-14T04:06:21;9.23;;;6.57;;
6626;SDS011;3349;49.830;8.748;2023-06-14T04:08:50;10.77;;;6.75;;
6626;SDS011;3349;49.830;8.748;2023-06-14T04:11:17;9.02;;;6.60;;
6626;SDS011;3349;49.830;8.748;2023-06-14T04:13:45;9.65;;;6.53;;
6626;SDS011;3349;49.830;8.748;2023-06-14T04:16:12;6.72;;;6.03;;
6626;SDS011;3349;49.830;8.748;2023-06-14T04:18:39;9.43;;;6.40;;
6626;SDS011;3349;49.830;8.748;2023-06-14T04:21:06;7.43;;;6.60;;
6626;SDS011;3349;49.830;8.748;2023-06-14T04:23:33;9.77;;;6.90;;
6626;SDS011;3349;49.830;8.748;2023-06-14T04:26:00;8.50;;;6.65;;
6626;SDS011;3349;49.830;8.748;2023-06-14T04:28:27;7.43;;;6.60;;
6626;SDS011;3349;49.830;8.748;2023-06-14T04:30:56;7.97;;;6.38;;
6626;SDS011;3349;49.830;8.748;2023-06-14T04:33:26;9.45;;;7.20;;
6626;SDS011;3349;49.830;8.748;2023-06-14T04:35:53;9.13;;;6.72;;
6626;SDS011;3349;49.830;8.748;2023-06-14T04:38:21;10.45;;;6.53;;
6626;SDS011;3349;49.830;8.748;2023-06-14T04:40:50;8.73;;;6.50;;
6626;SDS011;3349;49.830;8.748;2023-06-14T04:43:18;10.05;;;6.60;;
6626;SDS011;3349;49.830;8.748;2023-06-14T04:45:51;8.18;;;6.18;;
6626;SDS011;3349;49.830;8.748;2023-06-14T04:48:20;7.85;;;6.55;;
6626;SDS011;3349;49.830;8.748;2023-06-14T04:50:47;12.23;;;6.15;;
6626;SDS011;3349;49.830;8.748;2023-06-14T04:53:17;8.20;;;6.15;;
6626;SDS011;3349;49.830;8.748;2023-06-14T04:55:46;10.40;;;6.75;;
6626;SDS011;3349;49.830;8.748;2023-06-14T04:58:13;6.85;;;6.15;;
6626;SDS011;3349;49.830;8.748;2023-06-14T05:00:40;9.35;;;6.88;;
6626;SDS011;3349;49.830;8.748;2023-06-14T05:03:08;10.80;;;7.13;;
6626;SDS011;3349;49.830;8.748;2023-06-14T05:05:39;9.32;;;6.65;;
6626;SDS011;3349;49.830;8.748;2023-06-14T05:08:06;7.55;;;6.75;;
6626;SDS011;3349;49.830;8.748;2023-06-14T05:10:33;9.27;;;6.70;;
6626;SDS011;3349;49.830;8.748;2023-06-14T05:13:01;8.15;;;6.50;;
6626;SDS011;3349;49.830;8.748;2023-06-14T05:15:28;8.57;;;6.43;;
6626;SDS011;3349;49.830;8.748;2023-06-14T05:17:55;7.53;;;6.78;;
6626;SDS011;3349;49.830;8.748;2023-06-14T05:20:22;9.73;;;6.72;;
6626;SDS011;3349;49.830;8.748;2023-06-14T05:22:51;9.35;;;6.70;;
6626;SDS011;3349;49.830;8.748;2023-06-14T05:25:18;9.70;;;6.53;;
6626;SDS011;3349;49.830;8.748;2023-06-14T05:27:45;14.75;;;7.20;;
6626;SDS011;3349;49.830;8.748;2023-06-14T05:30:13;7.97;;;6.57;;
6626;SDS011;3349;49.830;8.748;2023-06-14T05:32:40;10.15;;;6.13;;
6626;SDS011;3349;49.830;8.748;2023-06-14T05:35:07;10.02;;;6.15;;
6626;SDS011;3349;49.830;8.748;2023-06-14T05:37:35;7.35;;;5.93;;
6626;SDS011;3349;49.830;8.748;2023-06-14T05:40:03;8.27;;;6.00;;
6626;SDS011;3349;49.830;8.748;2023-06-14T05:42:31;8.07;;;6.28;;
6626;SDS011;3349;49.830;8.748;2023-06-14T05:44:58;7.85;;;5.78;;
6626;SDS011;3349;49.830;8.748;2023-06-14T05:47:25;11.45;;;6.15;;
6626;SDS011;3349;49.830;8.748;2023-06-14T05:49:52;8.02;;;5.68;;
6626;SDS011;3349;49.830;8.748;2023-06-14T05:52:19;7.72;;;6.40;;
6626;SDS011;3349;49.830;8.748;2023-06-14T05:54:46;7.03;;;6.10;;
6626;SDS011;3349;49.830;8.748;2023-06-14T05:57:15;11.07;;;6.20;;
6626;SDS011;3349;49.830;8.748;2023-06-14T05:59:42;9.68;;;6.20;;
6626;SDS011;3349;49.830;8.748;2023-06-14T06:02:09;7.43;;;5.70;;
6626;SDS011;3349;49.830;8.748;2023-06-14T06:04:35;7.82;;;6.13;;
6626;SDS011;3349;49.830;8.748;2023-06-14T06:07:02;12.65;;;6.45;;
6626;SDS011;3349;49.830;8.748;2023-06-14T06:09:30;9.77;;;6.00;;
6626;SDS011;3349;49.830;8.748;2023-06-14T06:11:57;7.18;;;5.82;;
6626;SDS011;3349;49.830;8.748;2023-06-14T06:14:25;15.32;;;6.30;;
6626;SDS011;3349;49.830;8.748;2023-06-14T06:16:51;8.63;;;5.50;;
6626;SDS011;3349;49.830;8.748;2023-06-14T06:19:18;8.65;;;5.85;;
6626;SDS011;3349;49.830;8.748;2023-06-14T06:21:45;11.95;;;5.80;;
6626;SDS011;3349;49.830;8.748;2023-06-14T06:24:12;7.68;;;5.90;;
6626;SDS011;3349;49.830;8.748;2023-06-14T06:26:38;8.77;;;5.95;;
6626;SDS011;3349;49.830;8.748;2023-06-14T06:29:05;7.10;;;5.68;;
6626;SDS011;3349;49.830;8.748;2023-06-14T06:31:34;7.35;;;5.90;;
6626;SDS011;3349;49.830;8.748;2023-06-14T06:34:00;7.15;;;5.80;;
6626;SDS011;3349;49.830;8.748;2023-06-14T06:36:27;8.32;;;5.95;;
6626;SDS011;3349;49.830;8.748;2023-06-14T06:38:54;10.52;;;5.60;;
6626;SDS011;3349;49.830;8.748;2023-06-14T06:41:21;11.55;;;5.57;;
6626;SDS011;3349;49.830;8.748;2023-06-14T06:43:47;9.52;;;6.00;;
6626;SDS011;3349;49.830;8.748;2023-06-14T06:46:15;13.80;;;5.85;;
6626;SDS011;3349;49.830;8.748;2023-06-14T06:48:44;7.40;;;5.88;;
6626;SDS011;3349;49.830;8.748;2023-06-14T06:51:11;8.10;;;5.47;;
6626;SDS011;3349;49.830;8.748;2023-06-14T06:53:38;6.75;;;6.05;;
6626;SDS011;3349;49.830;8.748;2023-06-14T06:56:08;9.25;;;5.88;;
6626;SDS011;3349;49.830;8.748;2023-06-14T06:58:34;7.85;;;5.75;;
6626;SDS011;3349;49.830;8.748;2023-06-14T07:01:01;8.23;;;5.57;;
6626;SDS011;3349;49.830;8.748;2023-06-14T07:03:28;6.57;;;5.82;;
6626;SDS011;3349;49.830;8.748;2023-06-14T07:05:56;6.85;;;5.03;;
6626;SDS011;3349;49.830;8.748;2023-06-14T07:08:23;7.03;;;5.50;;
6626;SDS011;3349;49.830;8.748;2023-06-14T07:10:50;7.35;;;5.60;;
6626;SDS011;3349;49.830;8.748;2023-06-14T07:13:16;12.15;;;5.32;;
6626;SDS011;3349;49.830;8.748;2023-06-14T07:15:44;5.82;;;5.22;;
6626;SDS011;3349;49.830;8.748;2023-06-14T07:18:11;10.18;;;6.05;;
6626;SDS011;3349;49.830;8.748;2023-06-14T07:20:38;9.75;;;6.03;;
6626;SDS011;3349;49.830;8.748;2023-06-14T07:23:06;6.90;;;5.10;;
6626;SDS011;3349;49.830;8.748;2023-06-14T07:25:33;5.38;;;4.82;;
6626;SDS011;3349;49.830;8.748;2023-06-14T07:28:00;8.13;;;5.05;;
6626;SDS011;3349;49.830;8.748;2023-06-14T07:30:27;4.93;;;4.50;;
6626;SDS011;3349;49.830;8.748;2023-06-14T07:32:55;8.35;;;5.18;;
6626;SDS011;3349;49.830;8.748;2023-06-14T07:35:21;5.88;;;5.00;;
6626;SDS011;3349;49.830;8.748;2023-06-14T07:37:48;16.30;;;7.22;;
6626;SDS011;3349;49.830;8.748;2023-06-14T07:40:16;6.60;;;5.10;;
6626;SDS011;3349;49.830;8.748;2023-06-14T07:42:43;7.70;;;4.85;;
6626;SDS011;3349;49.830;8.748;2023-06-14T07:45:11;5.70;;;4.85;;
6626;SDS011;3349;49.830;8.748;2023-06-14T07:47:39;6.70;;;5.00;;
6626;SDS011;3349;49.830;8.748;2023-06-14T07:50:06;11.30;;;5.22;;
6626;SDS011;3349;49.830;8.748;2023-06-14T07:52:34;5.13;;;4.65;;
6626;SDS011;3349;49.830;8.748;2023-06-14T07:55:00;6.03;;;4.85;;
6626;SDS011;3349;49.830;8.748;2023-06-14T07:57:28;10.60;;;5.55;;
6626;SDS011;3349;49.830;8.748;2023-06-14T07:59:55;9.40;;;5.38;;
6626;SDS011;3349;49.830;8.748;2023-06-14T08:02:22;7.97;;;5.03;;
6626;SDS011;3349;49.830;8.748;2023-06-14T08:04:48;12.00;;;5.28;;
6626;SDS011;3349;49.830;8.748;2023-06-14T08:07:15;5.63;;;4.88;;
6626;SDS011;3349;49.830;8.748;2023-06-14T08:09:42;5.20;;;4.60;;
6626;SDS011;3349;49.830;8.748;2023-06-14T08:12:09;5.75;;;4.55;;
6626;SDS011;3349;49.830;8.748;2023-06-14T08:14:38;5.10;;;4.60;;
6626;SDS011;3349;49.830;8.748;2023-06-14T08:17:05;8.73;;;4.72;;
6626;SDS011;3349;49.830;8.748;2023-06-14T08:19:32;7.72;;;4.72;;
6626;SDS011;3349;49.830;8.748;2023-06-14T08:21:59;9.23;;;4.65;;
6626;SDS011;3349;49.830;8.748;2023-06-14T08:24:26;5.50;;;4.22;;
6626;SDS011;3349;49.830;8.748;2023-06-14T08:26:54;7.05;;;4.50;;
6626;SDS011;3349;49.830;8.748;2023-06-14T08:29:21;5.15;;;4.50;;
6626;SDS011;3349;49.830;8.748;2023-06-14T08:31:49;5.78;;;4.40;;
6626;SDS011;3349;49.830;8.748;2023-06-14T08:34:16;6.40;;;3.97;;
6626;SDS011;3349;49.830;8.748;2023-06-14T08:36:43;5.97;;;4.47;;
6626;SDS011;3349;49.830;8.748;2023-06-14T08:39:09;6.30;;;4.60;;
6626;SDS011;3349;49.830;8.748;2023-06-14T08:41:36;5.65;;;4.38;;
6626;SDS011;3349;49.830;8.748;2023-06-14T08:44:03;7.90;;;4.05;;
6626;SDS011;3349;49.830;8.748;2023-06-14T08:46:32;4.55;;;3.85;;
6626;SDS011;3349;49.830;8.748;2023-06-14T08:49:01;6.25;;;3.88;;
6626;SDS011;3349;49.830;8.748;2023-06-14T08:51:30;6.65;;;4.40;;
6626;SDS011;3349;49.830;8.748;2023-06-14T08:53:59;5.47;;;3.72;;
6626;SDS011;3349;49.830;8.748;2023-06-14T08:56:27;5.82;;;3.60;;
6626;SDS011;3349;49.830;8.748;2023-06-14T08:58:55;3.38;;;3.15;;
6626;SDS011;3349;49.830;8.748;2023-06-14T09:01:26;4.50;;;3.47;;
6626;SDS011;3349;49.830;8.748;2023-06-14T09:03:53;3.25;;;2.95;;
6626;SDS011;3349;49.830;8.748;2023-06-14T09:06:23;3.47;;;3.10;;
6626;SDS011;3349;49.830;8.748;2023-06-14T09:08:50;6.43;;;3.58;;
6626;SDS011;3349;49.830;8.748;2023-06-14T09:11:17;4.65;;;3.70;;
6626;SDS011;3349;49.830;8.748;2023-06-14T09:13:47;4.30;;;3.17;;
6626;SDS011;3349;49.830;8.748;2023-06-14T09:16:15;3.38;;;3.10;;
6626;SDS011;3349;49.830;8.748;2023-06-14T09:18:42;4.05;;;3.13;;
6626;SDS011;3349;49.830;8.748;2023-06-14T09:21:12;3.58;;;3.25;;
6626;SDS011;3349;49.830;8.748;2023-06-14T09:23:42;3.40;;;3.10;;
6626;SDS011;3349;49.830;8.748;2023-06-14T09:26:10;4.80;;;3.25;;
6626;SDS011;3349;49.830;8.748;2023-06-14T09:28:40;3.55;;;3.25;;
6626;SDS011;3349;49.830;8.748;2023-06-14T09:31:08;4.28;;;3.38;;
6626;SDS011;3349;49.830;8.748;2023-06-14T09:33:36;3.90;;;3.30;;
6626;SDS011;3349;49.830;8.748;2023-06-14T09:36:03;4.03;;;2.78;;
6626;SDS011;3349;49.830;8.748;2023-06-14T09:38:30;7.35;;;3.50;;
6626;SDS011;3349;49.830;8.748;2023-06-14T09:40:58;3.53;;;3.22;;
6626;SDS011;3349;49.830;8.748;2023-06-14T09:43:25;3.70;;;3.35;;
6626;SDS011;3349;49.830;8.748;2023-06-14T09:45:53;3.15;;;2.95;;
6626;SDS011;3349;49.830;8.748;2023-06-14T09:48:20;3.70;;;3.40;;
6626;SDS011;3349;49.830;8.748;2023-06-14T09:50:47;3.63;;;3.20;;
6626;SDS011;3349;49.830;8.748;2023-06-14T09:53:16;4.43;;;3.05;;
6626;SDS011;3349;49.830;8.748;2023-06-14T09:55:47;4.55;;;3.20;;
6626;SDS011;3349;49.830;8.748;2023-06-14T09:58:17;4.53;;;4.05;;
6626;SDS011;3349;49.830;8.748;2023-06-14T10:00:46;4.45;;;4.15;;
6626;SDS011;3349;49.830;8.748;2023-06-14T10:03:18;3.85;;;3.55;;
6626;SDS011;3349;49.830;8.748;2023-06-14T10:05:50;3.78;;;3.38;;
6626;SDS011;3349;49.830;8.748;2023-06-14T10:08:18;4.10;;;3.67;;
6626;SDS011;3349;49.830;8.748;2023-06-14T10:10:50;4.10;;;3.80;;
6626;SDS011;3349;49.830;8.748;2023-06-14T10:13:18;4.00;;;3.70;;
6626;SDS011;3349;49.830;8.748;2023-06-14T10:15:50;4.78;;;4.38;;
6626;SDS011;3349;49.830;8.748;2023-06-14T10:18:24;4.38;;;4.03;;
6626;SDS011;3349;49.830;8.748;2023-06-14T10:20:59;5.18;;;4.57;;
6626;SDS011;3349;49.830;8.748;2023-06-14T10:23:34;4.00;;;3.70;;
6626;SDS011;3349;49.830;8.748;2023-06-14T10:26:04;5.97;;;3.97;;
6626;SDS011;3349;49.830;8.748;2023-06-14T10:28:32;4.95;;;4.15;;
6626;SDS011;3349;49.830;8.748;2023-06-14T10:31:03;4.18;;;3.70;;
6626;SDS011;3349;49.830;8.748;2023-06-14T10:33:32;4.72;;;3.92;;
6626;SDS011;3349;49.830;8.748;2023-06-14T10:38:59;4.25;;;3.42;;
6626;SDS011;3349;49.830;8.748;2023-06-14T10:41:27;4.13;;;3.53;;
6626;SDS011;3349;49.830;8.748;2023-06-14T10:44:12;3.92;;;3.63;;
6626;SDS011;3349;49.830;8.748;2023-06-14T10:47:06;3.92;;;3.58;;
6626;SDS011;3349;49.830;8.748;2023-06-14T10:49:42;4.38;;;3.88;;
6626;SDS011;3349;49.830;8.748;2023-06-14T10:52:11;3.97;;;3.67;;
6626;SDS011;3349;49.830;8.748;2023-06-14T10:54:55;4.55;;;4.13;;
6626;SDS011;3349;49.830;8.748;2023-06-14T10:57:25;3.90;;;3.60;;
6626;SDS011;3349;49.830;8.748;2023-06-14T10:59:54;4.70;;;4.18;;
6626;SDS011;3349;49.830;8.748;2023-06-14T11:02:27;3.78;;;3.47;;
6626;SDS011;3349;49.830;8.748;2023-06-14T11:05:41;4.20;;;3.80;;
6626;SDS011;3349;49.830;8.748;2023-06-14T11:08:22;5.25;;;4.05;;
6626;SDS011;3349;49.830;8.748;2023-06-14T11:11:20;4.63;;;4.00;;
6626;SDS011;3349;49.830;8.748;2023-06-14T11:13:49;4.25;;;3.92;;
6626;SDS011;3349;49.830;8.748;2023-06-14T11:16:19;4.80;;;4.40;;
6626;SDS011;3349;49.830;8.748;2023-06-14T11:18:45;4.72;;;4.28;;
6626;SDS011;3349;49.830;8.748;2023-06-14T11:21:15;5.07;;;4.40;;
6626;SDS011;3349;49.830;8.748;2023-06-14T11:23:48;4.28;;;3.97;;
6626;SDS011;3349;49.830;8.748;2023-06-14T11:26:16;7.97;;;4.45;;
6626;SDS011;3349;49.830;8.748;2023-06-14T11:28:50;5.13;;;4.70;;
6626;SDS011;3349;49.830;8.748;2023-06-14T11:31:23;10.30;;;4.40;;
6626;SDS011;3349;49.830;8.748;2023-06-14T11:33:50;5.63;;;4.10;;
6626;SDS011;3349;49.830;8.748;2023-06-14T11:36:16;4.85;;;4.55;;
6626;SDS011;3349;49.830;8.748;2023-06-14T11:38:43;4.93;;;4.53;;
6626;SDS011;3349;49.830;8.748;2023-06-14T11:41:10;5.93;;;4.68;;
6626;SDS011;3349;49.830;8.748;2023-06-14T11:43:36;5.47;;;5.07;;
6626;SDS011;3349;49.830;8.748;2023-06-14T11:46:03;5.43;;;5.00;;
6626;SDS011;3349;49.830;8.748;2023-06-14T11:48:38;5.20;;;4.80;;
6626;SDS011;3349;49.830;8.748;2023-06-14T11:51:06;4.80;;;4.32;;
6626;SDS011;3349;49.830;8.748;2023-06-14T11:53:34;7.40;;;4.53;;
6626;SDS011;3349;49.830;8.748;2023-06-14T11:56:01;5.20;;;4.25;;
6626;SDS011;3349;49.830;8.748;2023-06-14T11:58:28;5.20;;;4.00;;
6626;SDS011;3349;49.830;8.748;2023-06-14T12:00:56;5.53;;;3.78;;
6626;SDS011;3349;49.830;8.748;2023-06-14T12:03:23;9.18;;;4.30;;
6626;SDS011;3349;49.830;8.748;2023-06-14T12:05:52;4.38;;;4.07;;
6626;SDS011;3349;49.830;8.748;2023-06-14T12:08:32;4.28;;;3.95;;
6626;SDS011;3349;49.830;8.748;2023-06-14T12:11:03;4.80;;;4.28;;
6626;SDS011;3349;49.830;8.748;2023-06-14T12:13:30;4.65;;;4.20;;
6626;SDS011;3349;49.830;8.748;2023-06-14T12:15:57;4.95;;;3.95;;
6626;SDS011;3349;49.830;8.748;2023-06-14T12:18:31;5.43;;;3.90;;
6626;SDS011;3349;49.830;8.748;2023-06-14T12:21:00;4.47;;;4.07;;
6626;SDS011;3349;49.830;8.748;2023-06-14T12:23:42;4.80;;;3.80;;
6626;SDS011;3349;49.830;8.748;2023-06-14T12:26:12;3.85;;;3.55;;
6626;SDS011;3349;49.830;8.748;2023-06-14T12:28:39;4.57;;;3.90;;
6626;SDS011;3349;49.830;8.748;2023-06-14T12:31:07;3.92;;;3.60;;
6626;SDS011;3349;49.830;8.748;2023-06-14T12:33:33;3.92;;;3.63;;
6626;SDS011;3349;49.830;8.748;2023-06-14T12:36:04;4.20;;;3.90;;
6626;SDS011;3349;49.830;8.748;2023-06-14T12:38:32;4.22;;;3.72;;
6626;SDS011;3349;49.830;8.748;2023-06-14T12:40:58;4.25;;;3.85;;
6626;SDS011;3349;49.830;8.748;2023-06-14T12:43:26;4.88;;;4.40;;
6626;SDS011;3349;49.830;8.748;2023-06-14T12:45:53;4.90;;;3.80;;
6626;SDS011;3349;49.830;8.748;2023-06-14T12:48:20;5.70;;;4.32;;
6626;SDS011;3349;49.830;8.748;2023-06-14T12:50:47;4.30;;;3.90;;
6626;SDS011;3349;49.830;8.748;2023-06-14T12:53:15;4.72;;;3.75;;
6626;SDS011;3349;49.830;8.748;2023-06-14T12:55:42;4.30;;;4.00;;
6626;SDS011;3349;49.830;8.748;2023-06-14T12:58:09;4.40;;;4.00;;
6626;SDS011;3349;49.830;8.748;2023-06-14T13:00:37;5.10;;;4.35;;
6626;SDS011;3349;49.830;8.748;2023-06-14T13:03:04;7.35;;;4.30;;
6626;SDS011;3349;49.830;8.748;2023-06-14T13:05:31;4.15;;;3.75;;
6626;SDS011;3349;49.830;8.748;2023-06-14T13:07:58;5.18;;;3.92;;
6626;SDS011;3349;49.830;8.748;2023-06-14T13:10:26;5.78;;;3.92;;
6626;SDS011;3349;49.830;8.748;2023-06-14T13:12:53;4.40;;;3.83;;
6626;SDS011;3349;49.830;8.748;2023-06-14T13:15:20;5.88;;;4.13;;
6626;SDS011;3349;49.830;8.748;2023-06-14T13:17:47;5.13;;;3.95;;
6626;SDS011;3349;49.830;8.748;2023-06-14T13:20:14;6.68;;;4.88;;
6626;SDS011;3349;49.830;8.748;2023-06-14T13:22:41;4.15;;;3.80;;
6626;SDS011;3349;49.830;8.748;2023-06-14T13:25:08;5.75;;;3.97;;
6626;SDS011;3349;49.830;8.748;2023-06-14T13:27:36;4.20;;;3.88;;
6626;SDS011;3349;49.830;8.748;2023-06-14T13:30:03;4.45;;;4.05;;
6626;SDS011;3349;49.830;8.748;2023-06-14T13:32:31;6.00;;;4.10;;
6626;SDS011;3349;49.830;8.748;2023-06-14T13:34:58;4.50;;;3.90;;
6626;SDS011;3349;49.830;8.748;2023-06-14T13:37:24;4.43;;;3.85;;
6626;SDS011;3349;49.830;8.748;2023-06-14T13:39:51;5.63;;;4.22;;
6626;SDS011;3349;49.830;8.748;2023-06-14T13:42:18;4.20;;;3.78;;
6626;SDS011;3349;49.830;8.748;2023-06-14T13:44:46;5.10;;;3.80;;
6626;SDS011;3349;49.830;8.748;2023-06-14T13:47:13;4.50;;;4.10;;
6626;SDS011;3349;49.830;8.748;2023-06-14T13:49:39;4.40;;;4.00;;
6626;SDS011;3349;49.830;8.748;2023-06-14T13:52:06;4.95;;;3.63;;
6626;SDS011;3349;49.830;8.748;2023-06-14T13:54:33;3.90;;;3.60;;
6626;SDS011;3349;49.830;8.748;2023-06-14T13:57:01;5.18;;;4.13;;
6626;SDS011;3349;49.830;8.748;2023-06-14T13:59:27;6.75;;;4.25;;
6626;SDS011;3349;49.830;8.748;2023-06-14T14:01:55;4.40;;;4.00;;
6626;SDS011;3349;49.830;8.748;2023-06-14T14:04:22;4.32;;;3.92;;
6626;SDS011;3349;49.830;8.748;2023-06-14T14:06:49;5.15;;;4.00;;
6626;SDS011;3349;49.830;8.748;2023-06-14T14:09:16;4.85;;;4.38;;
6626;SDS011;3349;49.830;8.748;2023-06-14T14:11:42;4.80;;;4.22;;
6626;SDS011;3349;49.830;8.748;2023-06-14T14:14:09;6.88;;;4.38;;
6626;SDS011;3349;49.830;8.748;2023-06-14T14:16:36;5.43;;;3.85;;
6626;SDS011;3349;49.830;8.748;2023-06-14T14:19:04;4.35;;;4.05;;
6626;SDS011;3349;49.830;8.748;2023-06-14T14:21:31;4.45;;;3.65;;
6626;SDS011;3349;49.830;8.748;2023-06-14T14:23:58;4.25;;;3.70;;
6626;SDS011;3349;49.830;8.748;2023-06-14T14:26:25;4.93;;;3.97;;
6626;SDS011;3349;49.830;8.748;2023-06-14T14:28:52;9.38;;;4.13;;
6626;SDS011;3349;49.830;8.748;2023-06-14T14:31:19;4.30;;;3.90;;
6626;SDS011;3349;49.830;8.748;2023-06-14T14:33:46;5.95;;;3.90;;
6626;SDS011;3349;49.830;8.748;2023-06-14T14:36:14;5.93;;;4.28;;
6626;SDS011;3349;49.830;8.748;2023-06-14T14:38:40;6.18;;;4.10;;
6626;SDS011;3349;49.830;8.748;2023-06-14T14:41:07;4.57;;;4.07;;
6626;SDS011;3349;49.830;8.748;2023-06-14T14:43:34;4.38;;;3.97;;
6626;SDS011;3349;49.830;8.748;2023-06-14T14:46:01;6.22;;;3.50;;
6626;SDS011;3349;49.830;8.748;2023-06-14T14:48:27;3.80;;;3.50;;
6626;SDS011;3349;49.830;8.748;2023-06-14T14:50:54;4.50;;;3.58;;
6626;SDS011;3349;49.830;8.748;2023-06-14T14:53:22;5.75;;;3.90;;
6626;SDS011;3349;49.830;8.748;2023-06-14T14:55:49;6.22;;;4.22;;
6626;SDS011;3349;49.830;8.748;2023-06-14T14:58:16;4.32;;;3.97;;
6626;SDS011;3349;49.830;8.748;2023-06-14T15:00:43;4.93;;;3.88;;
6626;SDS011;3349;49.830;8.748;2023-06-14T15:03:10;4.25;;;3.85;;
6626;SDS011;3349;49.830;8.748;2023-06-14T15:05:37;4.78;;;3.92;;
6626;SDS011;3349;49.830;8.748;2023-06-14T15:08:04;4.82;;;4.30;;
6626;SDS011;3349;49.830;8.748;2023-06-14T15:10:36;4.53;;;4.00;;
6626;SDS011;3349;49.830;8.748;2023-06-14T15:13:05;6.03;;;4.13;;
6626;SDS011;3349;49.830;8.748;2023-06-14T15:15:32;4.20;;;3.80;;
6626;SDS011;3349;49.830;8.748;2023-06-14T15:17:58;5.93;;;3.90;;
6626;SDS011;3349;49.830;8.748;2023-06-14T15:20:26;4.45;;;4.05;;
6626;SDS011;3349;49.830;8.748;2023-06-14T15:22:53;4.07;;;3.70;;
6626;SDS011;3349;49.830;8.748;2023-06-14T15:25:24;3.70;;;3.40;;